createdAt,value
2018-02-24T00:00:22.072Z,0
2018-02-24T00:01:31.792Z,0
2018-02-24T00:02:41.783Z,0
2018-02-24T00:03:51.780Z,0
2018-02-24T00:05:01.508Z,0
2018-02-24T00:06:11.498Z,0
2018-02-24T00:07:21.226Z,0
2018-02-24T00:08:31.219Z,0
2018-02-24T00:09:40.949Z,0
2018-02-24T00:10:50.942Z,0
2018-02-24T00:12:00.980Z,0
2018-02-24T00:13:10.457Z,0
2018-02-24T00:14:20.443Z,0
2018-02-24T00:15:30.431Z,0
2018-02-24T00:16:40.421Z,0
2018-02-24T00:17:50.145Z,0
2018-02-24T00:18:59.868Z,0
2018-02-24T00:20:09.875Z,0
2018-02-24T00:21:19.330Z,0
2018-02-24T00:22:29.368Z,0
2018-02-24T00:23:39.091Z,0
2018-02-24T00:24:48.552Z,0
2018-02-24T00:25:58.552Z,0
2018-02-24T00:27:08.542Z,0
2018-02-24T00:28:18.536Z,0
2018-02-24T00:29:28.531Z,0
2018-02-24T00:30:38.555Z,0
2018-02-24T00:31:48.278Z,0
2018-02-24T00:32:58.005Z,0
2018-02-24T00:34:07.998Z,0
2018-02-24T00:35:17.991Z,0
2018-02-24T00:36:27.977Z,0
2018-02-24T00:37:37.432Z,0
2018-02-24T00:38:47.425Z,0
2018-02-24T00:39:57.413Z,0
2018-02-24T00:41:07.399Z,0
2018-02-24T00:42:17.479Z,0
2018-02-24T00:43:27.210Z,0
2018-02-24T00:44:36.660Z,0
2018-02-24T00:45:46.646Z,0
2018-02-24T00:46:56.633Z,0
2018-02-24T00:48:06.620Z,0
2018-02-24T00:49:16.343Z,0
2018-02-24T00:50:26.330Z,0
2018-02-24T00:51:36.057Z,0
2018-02-24T00:52:45.777Z,0
2018-02-24T00:53:55.764Z,0
2018-02-24T00:55:05.500Z,0
2018-02-24T00:56:15.487Z,0
2018-02-24T00:57:25.480Z,0
2018-02-24T00:58:35.204Z,0
2018-02-24T00:59:44.929Z,0
2018-02-24T01:00:54.708Z,0
2018-02-24T01:02:04.697Z,0
2018-02-24T01:03:14.695Z,0
2018-02-24T01:04:24.694Z,0
2018-02-24T01:05:34.747Z,0
2018-02-24T01:06:44.854Z,0
2018-02-24T01:07:54.845Z,0
2018-02-24T01:09:04.838Z,0
2018-02-24T01:10:14.835Z,0
2018-02-24T01:11:24.837Z,0
2018-02-24T01:12:34.935Z,0
2018-02-24T01:13:44.655Z,0
2018-02-24T01:14:54.142Z,0
2018-02-24T01:16:03.867Z,0
2018-02-24T01:17:13.870Z,0
2018-02-24T01:18:23.956Z,0
2018-02-24T01:19:33.676Z,0
2018-02-24T01:20:43.665Z,0
2018-02-24T01:21:53.655Z,0
2018-02-24T01:23:03.646Z,0
2018-02-24T01:24:13.640Z,0
2018-02-24T01:25:23.096Z,0
2018-02-24T01:26:33.086Z,0
2018-02-24T01:27:42.815Z,0
2018-02-24T01:28:52.803Z,0
2018-02-24T01:30:02.801Z,0
2018-02-24T01:31:12.535Z,0
2018-02-24T01:32:22.529Z,0
2018-02-24T01:33:32.530Z,0
2018-02-24T01:34:42.523Z,0
2018-02-24T01:35:52.615Z,0
2018-02-24T01:37:02.607Z,0
2018-02-24T01:38:12.068Z,0
2018-02-24T01:39:22.062Z,0
2018-02-24T01:40:31.784Z,0
2018-02-24T01:41:41.775Z,0
2018-02-24T01:42:51.771Z,0
2018-02-24T01:44:01.760Z,0
2018-02-24T01:45:11.761Z,0
2018-02-24T01:46:21.758Z,0
2018-02-24T01:47:31.748Z,0
2018-02-24T01:48:41.475Z,0
2018-02-24T01:49:51.480Z,0
2018-02-24T01:51:01.529Z,0
2018-02-24T01:52:11.254Z,0
2018-02-24T01:53:20.982Z,0
2018-02-24T01:54:30.710Z,0
2018-02-24T01:55:40.714Z,0
2018-02-24T01:56:50.440Z,0
2018-02-24T01:58:00.443Z,0
2018-02-24T01:59:10.431Z,0
2018-02-24T02:00:20.418Z,0
2018-02-24T02:01:30.439Z,0
2018-02-24T02:02:40.434Z,0
2018-02-24T02:03:50.422Z,0
2018-02-24T02:05:00.160Z,0
2018-02-24T02:06:09.895Z,0
2018-02-24T02:07:19.631Z,0
2018-02-24T02:08:29.618Z,0
2018-02-24T02:09:39.620Z,0
2018-02-24T02:10:49.343Z,0
2018-02-24T02:11:58.800Z,0
2018-02-24T02:13:08.532Z,0
2018-02-24T02:14:18.536Z,0
2018-02-24T02:15:28.530Z,0
2018-02-24T02:16:38.302Z,0
2018-02-24T02:17:47.758Z,0
2018-02-24T02:18:57.743Z,0
2018-02-24T02:20:07.468Z,0
2018-02-24T02:21:17.206Z,0
2018-02-24T02:22:27.201Z,0
2018-02-24T02:23:37.198Z,0
2018-02-24T02:24:47.188Z,0
2018-02-24T02:25:57.182Z,0
2018-02-24T02:27:07.184Z,0
2018-02-24T02:28:17.177Z,0
2018-02-24T02:29:26.633Z,0
2018-02-24T02:30:36.633Z,0
2018-02-24T02:31:46.637Z,0
2018-02-24T02:32:56.635Z,0
2018-02-24T02:34:06.746Z,0
2018-02-24T02:35:16.479Z,0
2018-02-24T02:36:26.490Z,0
2018-02-24T02:37:36.240Z,0
2018-02-24T02:38:46.251Z,0
2018-02-24T02:39:56.251Z,0
2018-02-24T02:41:05.997Z,0
2018-02-24T02:42:15.458Z,0
2018-02-24T02:43:25.458Z,0
2018-02-24T02:44:35.463Z,0
2018-02-24T02:45:45.474Z,0
2018-02-24T02:46:55.491Z,0
2018-02-24T02:48:05.291Z,0
2018-02-24T02:49:15.025Z,0
2018-02-24T02:50:25.018Z,0
2018-02-24T02:51:35.019Z,0
2018-02-24T02:52:44.748Z,0
2018-02-24T02:53:54.755Z,0
2018-02-24T02:55:04.754Z,0
2018-02-24T02:56:14.744Z,0
2018-02-24T02:57:24.737Z,0
2018-02-24T02:58:34.751Z,0
2018-02-24T02:59:44.477Z,0
2018-02-24T03:00:54.477Z,0
2018-02-24T03:02:04.503Z,0
2018-02-24T03:03:14.505Z,0
2018-02-24T03:04:24.235Z,0
2018-02-24T03:05:33.964Z,0
2018-02-24T03:06:43.697Z,0
2018-02-24T03:07:53.691Z,0
2018-02-24T03:09:03.444Z,0
2018-02-24T03:10:13.442Z,0
2018-02-24T03:11:23.432Z,0
2018-02-24T03:12:33.422Z,0
2018-02-24T03:13:43.148Z,0
2018-02-24T03:14:53.132Z,0
2018-02-24T03:16:02.854Z,0
2018-02-24T03:17:12.622Z,0
2018-02-24T03:18:22.427Z,0
2018-02-24T03:19:32.420Z,0
2018-02-24T03:20:42.151Z,0
2018-02-24T03:21:51.877Z,0
2018-02-24T03:23:01.600Z,0
2018-02-24T03:24:11.593Z,0
2018-02-24T03:25:21.575Z,0
2018-02-24T03:26:31.566Z,0
2018-02-24T03:27:41.563Z,0
2018-02-24T03:28:51.553Z,0
2018-02-24T03:30:01.547Z,0
2018-02-24T03:31:11.560Z,0
2018-02-24T03:32:21.289Z,0
2018-02-24T03:33:31.282Z,0
2018-02-24T03:34:41.276Z,0
2018-02-24T03:35:51.268Z,0
2018-02-24T03:37:01.257Z,0
2018-02-24T03:38:10.992Z,0
2018-02-24T03:39:20.994Z,0
2018-02-24T03:40:30.985Z,0
2018-02-24T03:41:40.970Z,0
2018-02-24T03:42:50.959Z,0
2018-02-24T03:44:00.945Z,0
2018-02-24T03:45:10.940Z,0
2018-02-24T03:46:20.928Z,0
2018-02-24T03:47:30.927Z,0
2018-02-24T03:48:40.650Z,0
2018-02-24T03:49:50.644Z,0
2018-02-24T03:51:00.634Z,0
2018-02-24T03:52:10.357Z,0
2018-02-24T03:53:20.352Z,0
2018-02-24T03:54:30.341Z,0
2018-02-24T03:55:40.353Z,0
2018-02-24T03:56:50.339Z,0
2018-02-24T03:58:00.336Z,0
2018-02-24T03:59:10.058Z,0
2018-02-24T04:00:20.051Z,0
2018-02-24T04:04:10.300Z,0
2018-02-24T04:05:20.295Z,0
2018-02-24T04:06:30.287Z,0
2018-02-24T04:07:40.280Z,0
2018-02-24T04:08:50.273Z,0
2018-02-24T04:10:00.007Z,0
2018-02-24T04:11:09.464Z,0
2018-02-24T04:12:19.460Z,0
2018-02-24T04:13:29.454Z,0
2018-02-24T04:14:39.448Z,0
2018-02-24T04:15:49.176Z,0
2018-02-24T04:16:58.900Z,0
2018-02-24T04:18:08.622Z,0
2018-02-24T04:19:18.612Z,0
2018-02-24T04:20:28.328Z,0
2018-02-24T04:21:38.515Z,0
2018-02-24T04:22:48.507Z,0
2018-02-24T04:23:58.505Z,0
2018-02-24T04:25:08.495Z,0
2018-02-24T04:26:18.223Z,0
2018-02-24T04:27:28.226Z,0
2018-02-24T04:28:38.219Z,0
2018-02-24T04:29:48.214Z,0
2018-02-24T04:30:58.209Z,0
2018-02-24T04:32:08.202Z,0
2018-02-24T04:33:17.929Z,0
2018-02-24T04:34:27.653Z,0
2018-02-24T04:35:37.375Z,0
2018-02-24T04:36:47.099Z,0
2018-02-24T04:37:57.088Z,0
2018-02-24T04:39:07.083Z,0
2018-02-24T04:40:17.075Z,0
2018-02-24T04:41:27.067Z,0
2018-02-24T04:42:36.521Z,0
2018-02-24T04:43:46.243Z,0
2018-02-24T04:44:56.332Z,0
2018-02-24T04:46:06.328Z,0
2018-02-24T04:47:16.047Z,0
2018-02-24T04:48:26.046Z,0
2018-02-24T04:49:35.772Z,0
2018-02-24T04:50:45.496Z,0
2018-02-24T04:51:55.489Z,0
2018-02-24T04:53:05.481Z,0
2018-02-24T04:54:15.467Z,0
2018-02-24T04:55:25.456Z,0
2018-02-24T04:56:35.544Z,0
2018-02-24T04:57:45.529Z,0
2018-02-24T04:58:55.249Z,0
2018-02-24T05:00:04.982Z,0
2018-02-24T05:01:14.442Z,0
2018-02-24T05:02:24.437Z,0
2018-02-24T05:03:34.422Z,0
2018-02-24T05:04:44.412Z,0
2018-02-24T05:05:54.398Z,0
2018-02-24T05:07:04.394Z,0
2018-02-24T05:08:14.179Z,0
2018-02-24T05:09:24.176Z,0
2018-02-24T05:10:34.168Z,0
2018-02-24T05:11:44.154Z,0
2018-02-24T05:12:54.145Z,0
2018-02-24T05:14:04.131Z,0
2018-02-24T05:15:14.127Z,0
2018-02-24T05:16:24.112Z,0
2018-02-24T05:17:34.111Z,0
2018-02-24T05:18:43.564Z,0
2018-02-24T05:19:53.559Z,0
2018-02-24T05:21:03.548Z,0
2018-02-24T05:22:13.277Z,0
2018-02-24T05:23:23.261Z,0
2018-02-24T05:24:33.255Z,0
2018-02-24T05:25:43.251Z,0
2018-02-24T05:26:53.249Z,0
2018-02-24T05:28:03.260Z,0
2018-02-24T05:29:12.999Z,0
2018-02-24T05:30:22.999Z,0
2018-02-24T05:31:32.727Z,0
2018-02-24T05:32:42.720Z,0
2018-02-24T05:33:52.442Z,0
2018-02-24T05:35:02.434Z,0
2018-02-24T05:36:12.429Z,0
2018-02-24T05:37:22.419Z,0
2018-02-24T05:38:32.139Z,0
2018-02-24T05:39:42.121Z,0
2018-02-24T05:40:52.107Z,0
2018-02-24T05:42:02.095Z,0
2018-02-24T05:43:12.085Z,0
2018-02-24T05:44:22.074Z,0
2018-02-24T05:45:32.063Z,0
2018-02-24T05:46:42.067Z,0
2018-02-24T05:47:51.533Z,0
2018-02-24T05:49:01.522Z,0
2018-02-24T05:50:11.521Z,0
2018-02-24T05:51:21.241Z,0
2018-02-24T05:52:31.241Z,0
2018-02-24T05:53:41.234Z,0
2018-02-24T05:54:51.220Z,4
2018-02-24T05:56:00.939Z,4
2018-02-24T05:57:10.660Z,0
2018-02-24T05:58:20.380Z,4
2018-02-24T05:59:30.371Z,4
2018-02-24T06:00:40.354Z,4
2018-02-24T06:01:50.344Z,4
2018-02-24T06:03:00.332Z,8
2018-02-24T06:04:10.053Z,8
2018-02-24T06:05:20.057Z,8
2018-02-24T06:06:30.050Z,12
2018-02-24T06:07:40.203Z,12
2018-02-24T06:08:50.196Z,16
2018-02-24T06:10:00.186Z,16
2018-02-24T06:11:09.928Z,16
2018-02-24T06:12:19.650Z,24
2018-02-24T06:13:29.689Z,24
2018-02-24T06:14:39.675Z,28
2018-02-24T06:15:49.675Z,32
2018-02-24T06:16:59.780Z,36
2018-02-24T06:18:09.768Z,44
2018-02-24T06:19:19.765Z,52
2018-02-24T06:20:29.752Z,56
2018-02-24T06:21:39.738Z,64
2018-02-24T06:22:49.723Z,72
2018-02-24T06:23:59.723Z,80
2018-02-24T06:25:09.717Z,88
2018-02-24T06:26:19.454Z,96
2018-02-24T06:27:29.174Z,108
2018-02-24T06:28:39.201Z,120
2018-02-24T06:29:49.190Z,132
2018-02-24T06:30:59.180Z,148
2018-02-24T06:32:08.635Z,164
2018-02-24T06:33:18.352Z,176
2018-02-24T06:34:28.069Z,192
2018-02-24T06:35:38.068Z,204
2018-02-24T06:36:48.062Z,220
2018-02-24T06:37:57.785Z,236
2018-02-24T06:39:07.245Z,256
2018-02-24T06:40:17.235Z,276
2018-02-24T06:41:27.222Z,296
2018-02-24T06:42:37.254Z,316
2018-02-24T06:43:47.265Z,332
2018-02-24T06:44:56.984Z,348
2018-02-24T06:46:06.980Z,368
2018-02-24T06:47:16.704Z,380
2018-02-24T06:48:26.694Z,400
2018-02-24T06:49:36.681Z,420
2018-02-24T06:50:46.664Z,448
2018-02-24T06:51:56.652Z,472
2018-02-24T06:53:06.635Z,492
2018-02-24T06:54:16.660Z,528
2018-02-24T06:55:26.391Z,564
2018-02-24T06:56:36.113Z,604
2018-02-24T06:57:45.832Z,640
2018-02-24T06:58:55.822Z,696
2018-02-24T07:00:05.824Z,756
2018-02-24T07:01:15.814Z,820
2018-02-24T07:02:25.855Z,860
2018-02-24T07:03:35.581Z,904
2018-02-24T07:04:45.924Z,952
2018-02-24T07:05:55.910Z,1000
2018-02-24T07:07:05.905Z,1044
2018-02-24T07:08:15.626Z,1072
2018-02-24T07:09:25.622Z,1116
2018-02-24T07:10:35.073Z,1168
2018-02-24T07:11:44.795Z,1228
2018-02-24T07:12:54.844Z,1284
2018-02-24T07:14:04.893Z,1340
2018-02-24T07:15:14.617Z,1384
2018-02-24T07:16:24.614Z,1412
2018-02-24T07:17:34.613Z,1440
2018-02-24T07:18:44.599Z,1468
2018-02-24T07:19:54.593Z,1492
2018-02-24T07:21:04.583Z,1496
2018-02-24T07:22:14.304Z,1496
2018-02-24T07:23:24.294Z,1516
2018-02-24T07:24:34.014Z,1552
2018-02-24T07:25:43.739Z,1620
2018-02-24T07:26:53.728Z,1660
2018-02-24T07:28:03.721Z,1680
2018-02-24T07:29:13.714Z,1756
2018-02-24T07:30:23.705Z,1804
2018-02-24T07:31:33.422Z,1888
2018-02-24T07:32:43.139Z,1924
2018-02-24T07:33:53.129Z,1924
2018-02-24T07:35:03.122Z,1916
2018-02-24T07:36:13.121Z,1952
2018-02-24T07:37:23.113Z,1952
2018-02-24T07:38:32.573Z,1912
2018-02-24T07:39:42.565Z,1916
2018-02-24T07:40:52.553Z,1944
2018-02-24T07:42:02.541Z,1980
2018-02-24T07:43:12.266Z,2008
2018-02-24T07:44:22.260Z,2040
2018-02-24T07:45:31.817Z,2068
2018-02-24T07:46:41.812Z,2088
2018-02-24T07:47:51.790Z,2100
2018-02-24T07:49:01.773Z,2116
2018-02-24T07:50:11.224Z,2124
2018-02-24T07:51:20.950Z,2116
2018-02-24T07:52:30.675Z,2116
2018-02-24T07:53:40.662Z,2124
2018-02-24T07:54:50.651Z,2140
2018-02-24T07:56:00.370Z,2180
2018-02-24T07:57:10.352Z,2252
2018-02-24T07:58:20.335Z,2332
2018-02-24T07:59:30.116Z,2420
2018-02-24T08:00:40.154Z,2492
2018-02-24T08:01:49.887Z,2544
2018-02-24T08:02:59.878Z,2600
2018-02-24T08:04:09.872Z,2660
2018-02-24T08:05:19.869Z,2704
2018-02-24T08:06:29.598Z,2760
2018-02-24T08:07:39.590Z,2796
2018-02-24T08:08:49.586Z,2836
2018-02-24T08:09:59.581Z,2904
2018-02-24T08:11:09.577Z,2968
2018-02-24T08:12:19.591Z,3032
2018-02-24T08:13:29.318Z,3100
2018-02-24T08:14:39.418Z,3156
2018-02-24T08:15:49.404Z,3200
2018-02-24T08:16:59.395Z,3256
2018-02-24T08:18:09.120Z,3312
2018-02-24T08:19:19.116Z,3364
2018-02-24T08:20:28.839Z,3432
2018-02-24T08:21:38.840Z,3548
2018-02-24T08:22:48.559Z,3704
2018-02-24T08:23:58.016Z,3852
2018-02-24T08:25:07.477Z,3980
2018-02-24T08:26:17.210Z,4068
2018-02-24T08:27:26.975Z,4096
2018-02-24T08:28:36.968Z,4088
2018-02-24T08:29:46.968Z,4120
2018-02-24T08:30:56.966Z,4188
2018-02-24T08:32:06.702Z,4292
2018-02-24T08:33:16.432Z,4404
2018-02-24T08:34:26.164Z,4548
2018-02-24T08:35:36.161Z,4688
2018-02-24T08:36:45.884Z,4800
2018-02-24T08:37:55.606Z,4884
2018-02-24T08:39:05.595Z,4948
2018-02-24T08:40:15.595Z,5012
2018-02-24T08:41:25.587Z,5052
2018-02-24T08:42:35.589Z,5036
2018-02-24T08:43:45.316Z,5000
2018-02-24T08:44:55.308Z,4896
2018-02-24T08:46:04.764Z,4724
2018-02-24T08:47:14.485Z,4576
2018-02-24T08:48:24.477Z,4540
2018-02-24T08:49:34.196Z,4644
2018-02-24T08:50:44.193Z,4768
2018-02-24T08:51:54.185Z,4832
2018-02-24T08:53:04.179Z,4892
2018-02-24T08:54:14.165Z,4928
2018-02-24T08:55:24.167Z,4940
2018-02-24T08:56:33.893Z,5048
2018-02-24T08:57:43.615Z,5184
2018-02-24T08:58:53.419Z,5316
2018-02-24T09:00:03.415Z,5452
2018-02-24T09:01:13.148Z,5592
2018-02-24T09:02:23.144Z,5708
2018-02-24T09:03:32.869Z,5780
2018-02-24T09:04:42.589Z,5840
2018-02-24T09:05:52.318Z,5868
2018-02-24T09:07:02.042Z,5888
2018-02-24T09:08:11.763Z,5928
2018-02-24T09:09:21.504Z,6028
2018-02-24T09:10:31.492Z,6176
2018-02-24T09:11:41.217Z,6304
2018-02-24T09:12:51.203Z,6376
2018-02-24T09:14:01.192Z,6428
2018-02-24T09:15:10.915Z,6564
2018-02-24T09:16:20.636Z,6680
2018-02-24T09:17:30.617Z,6744
2018-02-24T09:18:40.349Z,6800
2018-02-24T09:19:50.350Z,6848
2018-02-24T09:21:00.334Z,6904
2018-02-24T09:22:09.528Z,6920
2018-02-24T09:23:19.251Z,6880
2018-02-24T09:24:29.337Z,6876
2018-02-24T09:25:38.789Z,6868
2018-02-24T09:26:48.522Z,6892
2018-02-24T09:27:58.513Z,6932
2018-02-24T09:29:08.507Z,6968
2018-02-24T09:30:18.286Z,7004
2018-02-24T09:31:28.009Z,7044
2018-02-24T09:32:37.466Z,7064
2018-02-24T09:33:47.462Z,7100
2018-02-24T09:34:57.468Z,7184
2018-02-24T09:36:06.932Z,7256
2018-02-24T09:37:16.931Z,7328
2018-02-24T09:38:26.720Z,7388
2018-02-24T09:39:36.445Z,7424
2018-02-24T09:40:46.445Z,7480
2018-02-24T09:41:56.433Z,7536
2018-02-24T09:43:06.157Z,7528
2018-02-24T09:44:16.152Z,7584
2018-02-24T09:45:26.146Z,7592
2018-02-24T09:46:36.136Z,7592
2018-02-24T09:47:46.157Z,7568
2018-02-24T09:48:55.905Z,7532
2018-02-24T09:50:05.894Z,7512
2018-02-24T09:51:15.888Z,7480
2018-02-24T09:52:25.892Z,7460
2018-02-24T09:53:35.894Z,7444
2018-02-24T09:54:45.881Z,7448
2018-02-24T09:55:55.883Z,7500
2018-02-24T09:57:05.338Z,7576
2018-02-24T09:58:15.067Z,7692
2018-02-24T09:59:25.062Z,7764
2018-02-24T10:00:34.788Z,7804
2018-02-24T10:01:44.801Z,7848
2018-02-24T10:02:54.525Z,7936
2018-02-24T10:04:04.528Z,8056
2018-02-24T10:05:13.723Z,8204
2018-02-24T10:06:23.450Z,8368
2018-02-24T10:07:33.454Z,8580
2018-02-24T10:08:43.453Z,8768
2018-02-24T10:09:53.205Z,8908
2018-02-24T10:11:02.660Z,9040
2018-02-24T10:12:12.385Z,9204
2018-02-24T10:13:22.109Z,9304
2018-02-24T10:14:31.835Z,9368
2018-02-24T10:15:41.828Z,9484
2018-02-24T10:16:51.817Z,9524
2018-02-24T10:18:01.283Z,9624
2018-02-24T10:19:11.009Z,9840
2018-02-24T10:20:21.011Z,10260
2018-02-24T10:21:31.010Z,10648
2018-02-24T10:22:40.735Z,10740
2018-02-24T10:23:50.195Z,10800
2018-02-24T10:25:00.537Z,11160
2018-02-24T10:26:10.597Z,11280
2018-02-24T10:27:20.592Z,10720
2018-02-24T10:28:30.590Z,10368
2018-02-24T10:29:40.314Z,10168
2018-02-24T10:30:50.047Z,9964
2018-02-24T10:32:00.053Z,9896
2018-02-24T10:33:10.049Z,9828
2018-02-24T10:34:19.774Z,9836
2018-02-24T10:35:29.495Z,9876
2018-02-24T10:36:38.959Z,9924
2018-02-24T10:37:48.686Z,9908
2018-02-24T10:38:58.680Z,9904
2018-02-24T10:40:08.767Z,9932
2018-02-24T10:41:18.494Z,9980
2018-02-24T10:42:28.491Z,10124
2018-02-24T10:43:37.951Z,10476
2018-02-24T10:44:47.948Z,10592
2018-02-24T10:45:57.947Z,10808
2018-02-24T10:47:07.966Z,10536
2018-02-24T10:48:17.969Z,10404
2018-02-24T10:49:27.706Z,10240
2018-02-24T10:50:37.708Z,10024
2018-02-24T10:51:47.708Z,9968
2018-02-24T10:52:57.701Z,9744
2018-02-24T10:54:07.436Z,9336
2018-02-24T10:55:16.889Z,9048
2018-02-24T10:56:26.617Z,8824
2018-02-24T10:57:36.734Z,8416
2018-02-24T10:58:46.461Z,8132
2018-02-24T10:59:56.459Z,8060
2018-02-24T11:01:05.938Z,8060
2018-02-24T11:02:15.930Z,8048
2018-02-24T11:03:25.657Z,8044
2018-02-24T11:04:35.384Z,8024
2018-02-24T11:05:45.119Z,7952
2018-02-24T11:06:54.913Z,7888
2018-02-24T11:08:04.374Z,7840
2018-02-24T11:09:14.364Z,7764
2018-02-24T11:10:24.099Z,7612
2018-02-24T11:11:33.886Z,7488
2018-02-24T11:12:43.881Z,7432
2018-02-24T11:13:53.609Z,7392
2018-02-24T11:15:03.600Z,7404
2018-02-24T11:16:13.590Z,7404
2018-02-24T11:17:23.319Z,7400
2018-02-24T11:18:33.320Z,7336
2018-02-24T11:19:43.314Z,7240
2018-02-24T11:20:53.310Z,7196
2018-02-24T11:22:03.302Z,7244
2018-02-24T11:23:13.039Z,7304
2018-02-24T11:24:23.031Z,7344
2018-02-24T11:25:32.223Z,7308
2018-02-24T11:26:42.318Z,7244
2018-02-24T11:27:52.043Z,7204
2018-02-24T11:29:02.041Z,7196
2018-02-24T11:30:12.128Z,7188
2018-02-24T11:31:21.701Z,7232
2018-02-24T11:32:31.700Z,7320
2018-02-24T11:33:41.691Z,7424
2018-02-24T11:34:51.423Z,7484
2018-02-24T11:36:01.417Z,7508
2018-02-24T11:37:10.884Z,7476
2018-02-24T11:38:20.879Z,7464
2018-02-24T11:39:30.335Z,7460
2018-02-24T11:40:39.529Z,7472
2018-02-24T11:41:49.251Z,7480
2018-02-24T11:42:59.245Z,7544
2018-02-24T11:44:08.701Z,7584
2018-02-24T11:45:18.425Z,7560
2018-02-24T11:46:28.422Z,7540
2018-02-24T11:47:38.200Z,7540
2018-02-24T11:48:48.193Z,7532
2018-02-24T11:49:58.191Z,7620
2018-02-24T11:51:07.921Z,7788
2018-02-24T11:52:17.391Z,7960
2018-02-24T11:53:27.382Z,8052
2018-02-24T11:54:37.377Z,8064
2018-02-24T11:55:47.172Z,7988
2018-02-24T11:56:56.906Z,7956
2018-02-24T11:58:06.897Z,7888
2018-02-24T11:59:16.898Z,7728
2018-02-24T12:00:26.623Z,7552
2018-02-24T12:01:36.413Z,7324
2018-02-24T12:02:46.146Z,7004
2018-02-24T12:03:55.875Z,6736
2018-02-24T12:05:05.606Z,6604
2018-02-24T12:06:15.601Z,6532
2018-02-24T12:07:25.627Z,6488
2018-02-24T12:08:35.631Z,6472
2018-02-24T12:09:45.368Z,6512
2018-02-24T12:10:55.385Z,6620
2018-02-24T12:12:05.114Z,6748
2018-02-24T12:13:15.114Z,6816
2018-02-24T12:14:25.117Z,6836
2018-02-24T12:15:34.850Z,6896
2018-02-24T12:16:44.846Z,6916
2018-02-24T12:17:54.849Z,6920
2018-02-24T12:19:04.406Z,6968
2018-02-24T12:20:14.407Z,7140
2018-02-24T12:21:24.406Z,7316
2018-02-24T12:22:34.126Z,7436
2018-02-24T12:23:43.853Z,7464
2018-02-24T12:24:53.848Z,7348
2018-02-24T12:26:03.312Z,7228
2018-02-24T12:27:12.783Z,7236
2018-02-24T12:28:22.512Z,7124
2018-02-24T12:29:31.979Z,7084
2018-02-24T12:30:41.715Z,7220
2018-02-24T12:31:51.744Z,7368
2018-02-24T12:33:01.776Z,7516
2018-02-24T12:34:11.507Z,7540
2018-02-24T12:35:21.505Z,7484
2018-02-24T12:36:31.504Z,7440
2018-02-24T12:37:41.502Z,7404
2018-02-24T12:38:51.503Z,7392
2018-02-24T12:40:01.505Z,7336
2018-02-24T12:41:10.712Z,7328
2018-02-24T12:42:20.707Z,7352
2018-02-24T12:43:30.700Z,7360
2018-02-24T12:44:40.432Z,7372
2018-02-24T12:45:50.427Z,7384
2018-02-24T12:47:00.154Z,7332
2018-02-24T12:48:10.157Z,7224
2018-02-24T12:49:19.638Z,7044
2018-02-24T12:50:29.408Z,6868
2018-02-24T12:51:39.142Z,6708
2018-02-24T12:52:49.147Z,6580
2018-02-24T12:53:59.141Z,6496
2018-02-24T12:55:08.600Z,6420
2018-02-24T12:56:18.600Z,6320
2018-02-24T12:57:28.326Z,6228
2018-02-24T12:58:38.063Z,6172
2018-02-24T12:59:48.054Z,6188
2018-02-24T13:00:57.788Z,6260
2018-02-24T13:02:07.795Z,6320
2018-02-24T13:03:17.798Z,6396
2018-02-24T13:04:27.262Z,6404
2018-02-24T13:05:36.992Z,6412
2018-02-24T13:06:46.981Z,6404
2018-02-24T13:07:56.177Z,6328
2018-02-24T13:09:06.216Z,6132
2018-02-24T13:10:15.937Z,5960
2018-02-24T13:11:25.425Z,5748
2018-02-24T13:12:35.435Z,5540
2018-02-24T13:13:45.429Z,5356
2018-02-24T13:14:55.426Z,5224
2018-02-24T13:16:05.472Z,5208
2018-02-24T13:17:15.198Z,5232
2018-02-24T13:18:24.927Z,5260
2018-02-24T13:19:34.651Z,5308
2018-02-24T13:20:44.643Z,5356
2018-02-24T13:21:54.640Z,5420
2018-02-24T13:23:04.104Z,5464
2018-02-24T13:24:14.099Z,5484
2018-02-24T13:25:24.238Z,5424
2018-02-24T13:26:34.308Z,5348
2018-02-24T13:27:44.313Z,5264
2018-02-24T13:28:54.311Z,5188
2018-02-24T13:30:04.310Z,5120
2018-02-24T13:31:14.043Z,5044
2018-02-24T13:32:23.560Z,4992
2018-02-24T13:33:33.021Z,5016
2018-02-24T13:34:42.745Z,5052
2018-02-24T13:35:52.740Z,5032
2018-02-24T13:37:02.737Z,4956
2018-02-24T13:38:12.731Z,4848
2018-02-24T13:39:22.193Z,4780
2018-02-24T13:40:31.924Z,4736
2018-02-24T13:41:41.918Z,4680
2018-02-24T13:42:51.911Z,4572
2018-02-24T13:44:01.908Z,4468
2018-02-24T13:45:11.638Z,4392
2018-02-24T13:46:21.641Z,4288
2018-02-24T13:47:31.637Z,4180
2018-02-24T13:48:41.627Z,4096
2018-02-24T13:49:51.353Z,4032
2018-02-24T13:51:01.346Z,3968
2018-02-24T13:52:10.824Z,3916
2018-02-24T13:53:20.816Z,3864
2018-02-24T13:54:30.541Z,3784
2018-02-24T13:55:40.533Z,3708
2018-02-24T13:56:50.262Z,3676
2018-02-24T13:58:00.256Z,3668
2018-02-24T13:59:09.713Z,3656
2018-02-24T14:00:19.440Z,3640
2018-02-24T14:01:29.438Z,3608
2018-02-24T14:02:39.430Z,3584
2018-02-24T14:03:49.470Z,3588
2018-02-24T14:04:59.200Z,3588
2018-02-24T14:06:09.193Z,3592
2018-02-24T14:07:18.926Z,3588
2018-02-24T14:08:28.655Z,3576
2018-02-24T14:09:38.477Z,3580
2018-02-24T14:10:48.479Z,3588
2018-02-24T14:11:58.207Z,3584
2018-02-24T14:13:07.993Z,3580
2018-02-24T14:14:18.034Z,3568
2018-02-24T14:15:28.326Z,3532
2018-02-24T14:16:38.051Z,3508
2018-02-24T14:17:48.047Z,3488
2018-02-24T14:18:57.507Z,3456
2018-02-24T14:20:07.237Z,3432
2018-02-24T14:21:17.245Z,3416
2018-02-24T14:22:27.278Z,3420
2018-02-24T14:23:37.321Z,3428
2018-02-24T14:24:47.319Z,3432
2018-02-24T14:25:57.316Z,3420
2018-02-24T14:27:07.332Z,3416
2018-02-24T14:28:17.071Z,3412
2018-02-24T14:29:26.843Z,3404
2018-02-24T14:30:36.860Z,3376
2018-02-24T14:31:46.861Z,3352
2018-02-24T14:32:56.859Z,3336
2018-02-24T14:34:06.586Z,3320
2018-02-24T14:35:16.320Z,3308
2018-02-24T14:36:26.312Z,3320
2018-02-24T14:37:36.308Z,3340
2018-02-24T14:38:46.042Z,3360
2018-02-24T14:39:55.897Z,3380
2018-02-24T14:41:05.630Z,3376
2018-02-24T14:42:15.367Z,3340
2018-02-24T14:43:25.375Z,3288
2018-02-24T14:44:35.108Z,3228
2018-02-24T14:45:45.102Z,3160
2018-02-24T14:46:54.829Z,3100
2018-02-24T14:48:04.833Z,3012
2018-02-24T14:49:14.838Z,2892
2018-02-24T14:50:24.934Z,2756
2018-02-24T14:51:34.922Z,2656
2018-02-24T14:52:44.387Z,2596
2018-02-24T14:53:54.113Z,2548
2018-02-24T14:55:04.108Z,2488
2018-02-24T14:56:13.573Z,2432
2018-02-24T14:57:23.585Z,2388
2018-02-24T14:58:33.328Z,2360
2018-02-24T14:59:43.336Z,2336
2018-02-24T15:00:53.058Z,2284
2018-02-24T15:02:02.792Z,2212
2018-02-24T15:03:12.811Z,2148
2018-02-24T15:04:22.546Z,2104
2018-02-24T15:05:32.765Z,2080
2018-02-24T15:06:42.768Z,2056
2018-02-24T15:07:52.772Z,2028
2018-02-24T15:09:02.517Z,1992
2018-02-24T15:10:12.517Z,1940
2018-02-24T15:11:22.246Z,1888
2018-02-24T15:12:32.235Z,1824
2018-02-24T15:13:41.694Z,1736
2018-02-24T15:14:51.698Z,1628
2018-02-24T15:16:01.437Z,1516
2018-02-24T15:17:10.972Z,1408
2018-02-24T15:18:20.701Z,1308
2018-02-24T15:19:30.691Z,1228
2018-02-24T15:20:40.428Z,1168
2018-02-24T15:21:50.430Z,1116
2018-02-24T15:23:00.434Z,1076
2018-02-24T15:24:10.437Z,1048
2018-02-24T15:25:20.534Z,1032
2018-02-24T15:26:30.533Z,1036
2018-02-24T15:27:40.534Z,1048
2018-02-24T15:28:50.524Z,1068
2018-02-24T15:30:00.524Z,1068
2018-02-24T15:31:10.252Z,1060
2018-02-24T15:32:20.248Z,1044
2018-02-24T15:33:29.720Z,1040
2018-02-24T15:34:39.230Z,1036
2018-02-24T15:35:48.962Z,1048
2018-02-24T15:36:58.977Z,1056
2018-02-24T15:38:08.971Z,1068
2018-02-24T15:39:19.007Z,1076
2018-02-24T15:40:28.999Z,1076
2018-02-24T15:41:39.001Z,1080
2018-02-24T15:42:48.996Z,1076
2018-02-24T15:43:58.736Z,1072
2018-02-24T15:45:08.730Z,1072
2018-02-24T15:46:18.740Z,1080
2018-02-24T15:47:28.739Z,1084
2018-02-24T15:48:38.473Z,1076
2018-02-24T15:49:48.470Z,1044
2018-02-24T15:50:58.464Z,984
2018-02-24T15:52:07.930Z,916
2018-02-24T15:53:17.926Z,848
2018-02-24T15:54:27.653Z,788
2018-02-24T15:55:37.380Z,740
2018-02-24T15:56:47.110Z,696
2018-02-24T15:57:57.103Z,660
2018-02-24T15:59:07.096Z,636
2018-02-24T16:00:16.826Z,616
2018-02-24T16:01:26.823Z,604
2018-02-24T16:02:36.558Z,592
2018-02-24T16:03:46.288Z,576
2018-02-24T16:04:56.065Z,556
2018-02-24T16:06:06.058Z,536
2018-02-24T16:07:16.107Z,508
2018-02-24T16:08:25.853Z,484
2018-02-24T16:09:35.851Z,460
2018-02-24T16:10:45.581Z,440
2018-02-24T16:11:55.576Z,420